Airfield :
LOGIN :

Register | Disclaimer

   EN    FR    IT 

 










Legend :    VFR   Marginal VFR   IFR   Intensive IFR   Very Intensive IFR
Visi :
Ceiling :
>= 8 km
>= 3000ft
5 to 8 km
1000 to 3000 ft
1500m to 5 km
500 to 1000 ft
800 to 1500m
200 to 500 ft
< 800m
< 200 ft
Symbols :   Thunderstorms  Fog  Heavy snow  Heavy precipitations  Wind > 20 kt
SIGMETs :     Misc.  Thunderstorms  Icing  Turbulence  Mountain Waves  Volcanic Ashes







- Airport Elevation : -11 ft
- IATA code : AMS


EHAM - Amsterdam Schiphol

CURRENT METAR :
  • 140955Z 29013KT 9999 FEW024 20/13 Q1013 NOSIG

EXPIRED METARs :
  • 140925Z 29014KT 9999 FEW022 20/14 Q1013 NOSIG
  • 140855Z 30014KT 9999 SCT022 20/14 Q1013 NOSIG
  • 140825Z 30013KT 9999 FEW020 19/15 Q1012 NOSIG
  • 140755Z 30014KT 9999 FEW020 20/15 Q1012 NOSIG
  • 140725Z 30014KT 9999 FEW020 19/15 Q1012 NOSIG

TAF TAF EHAM
Valid from the 14 at 06:00 until the 15 at 12:00 UTC


140449Z 1406/1512 30013KT 9999 SCT018 BKN030
PROB30 1406/1408 BKN014
BECMG 1418/1421 20005KT FEW045
PROB30
TEMPO 1502/1507 5000 BR BKN005
BECMG 1506/1509 23012KT SCT012 BKN020
No reported NOTAMs for that airfield.



MET'MAP, your aeronautical weather chart ! - Copyright ORBIFLY December 2007 - Disclaimer

ORBIFLY MET'MAP TEAM :

Programming & Development : Alexandra Zaïnal
Concept & Development : Baudouin d'Aumeries
Co-Development & Prog : Marc-Olivier Méhu
Technical & hardware support : Manuel Goepfert

Contact : metmap@orbifly.com




SOURCES & CREDITS :

   NOAA